createdAt,value
2019-01-12T00:01:56.181Z,82.48
2019-01-12T00:04:25.212Z,82.49
2019-01-12T00:06:54.272Z,82.55
2019-01-12T00:09:23.436Z,82.40
2019-01-12T00:11:52.506Z,82.44
2019-01-12T00:14:21.568Z,82.53
2019-01-12T00:16:50.646Z,82.32
2019-01-12T00:19:19.712Z,82.40
2019-01-12T00:21:48.767Z,82.43
2019-01-12T00:24:17.874Z,82.36
2019-01-12T00:26:46.927Z,82.50
2019-01-12T00:29:16.013Z,82.62
2019-01-12T00:31:45.089Z,82.59
2019-01-12T00:34:14.156Z,82.52
2019-01-12T00:36:43.243Z,82.52
2019-01-12T00:39:12.330Z,82.40
2019-01-12T00:41:41.387Z,82.40
2019-01-12T00:44:10.444Z,82.42
2019-01-12T00:46:39.562Z,82.42
2019-01-12T00:49:08.624Z,82.32
2019-01-12T00:51:37.693Z,82.24
2019-01-12T00:54:06.798Z,82.12
2019-01-12T00:56:35.862Z,82.10
2019-01-12T00:59:04.920Z,82.35
2019-01-12T01:01:33.999Z,82.53
2019-01-12T01:04:03.060Z,82.41
2019-01-12T01:06:32.129Z,82.31
2019-01-12T01:09:01.251Z,82.20
2019-01-12T01:11:30.300Z,82.19
2019-01-12T01:13:59.348Z,82.14
2019-01-12T01:16:28.456Z,82.07
2019-01-12T01:18:57.512Z,82.07
2019-01-12T01:21:26.566Z,82.12
2019-01-12T01:23:55.641Z,81.99
2019-01-12T01:26:24.688Z,81.95
2019-01-12T01:28:53.738Z,81.90
2019-01-12T01:31:22.867Z,81.86
2019-01-12T01:33:51.916Z,81.78
2019-01-12T01:36:20.968Z,81.85
2019-01-12T01:38:50.042Z,81.92
2019-01-12T01:41:19.088Z,81.89
2019-01-12T01:43:48.149Z,82.04
2019-01-12T01:46:17.236Z,82.05
2019-01-12T01:48:46.294Z,82.07
2019-01-12T01:51:15.349Z,82.13
2019-01-12T01:53:44.463Z,82.02
2019-01-12T01:56:13.519Z,82.13
2019-01-12T01:58:42.577Z,82.08
2019-01-12T02:01:11.689Z,82.10
2019-01-12T02:03:40.748Z,82.04
2019-01-12T02:06:09.800Z,82.09
2019-01-12T02:08:38.976Z,82.06
2019-01-12T02:11:08.024Z,82.11
2019-01-12T02:13:37.076Z,82.07
2019-01-12T02:16:06.761Z,82.18
2019-01-12T02:18:35.813Z,82.18
2019-01-12T02:21:04.856Z,82.20
2019-01-12T02:23:33.932Z,82.25
2019-01-12T02:26:02.989Z,82.31
2019-01-12T02:28:32.047Z,82.31
2019-01-12T02:31:01.117Z,82.21
2019-01-12T02:33:30.169Z,82.17
2019-01-12T02:35:59.210Z,82.12
2019-01-12T02:38:28.308Z,82.14
2019-01-12T02:40:57.352Z,82.22
2019-01-12T02:43:26.390Z,82.12
2019-01-12T02:45:55.462Z,82.12
2019-01-12T02:48:24.518Z,82.01
2019-01-12T02:50:53.570Z,82.08
2019-01-12T02:53:22.654Z,81.96
2019-01-12T02:55:51.707Z,81.85
2019-01-12T02:58:20.766Z,81.78
2019-01-12T03:00:49.865Z,81.74
2019-01-12T03:03:18.928Z,81.79
2019-01-12T03:05:47.984Z,81.73
2019-01-12T03:08:17.064Z,81.72
2019-01-12T03:10:46.109Z,81.72
2019-01-12T03:13:15.164Z,81.66
2019-01-12T03:15:44.612Z,81.56
2019-01-12T03:18:13.662Z,81.67
2019-01-12T03:20:42.703Z,81.65
2019-01-12T03:23:11.812Z,81.75
2019-01-12T03:25:40.852Z,81.78
2019-01-12T03:28:09.900Z,81.81
2019-01-12T03:30:38.989Z,81.85
2019-01-12T03:33:08.031Z,81.83
2019-01-12T03:35:37.062Z,81.85
2019-01-12T03:38:06.139Z,81.92
2019-01-12T03:40:35.182Z,81.93
2019-01-12T03:43:04.243Z,81.93
2019-01-12T03:45:33.414Z,81.90
2019-01-12T03:48:02.449Z,81.93
2019-01-12T03:50:31.485Z,82.06
2019-01-12T03:53:00.883Z,82.04
2019-01-12T03:55:29.936Z,81.95
2019-01-12T03:57:58.990Z,81.89
2019-01-12T04:00:28.063Z,81.87
2019-01-12T04:02:57.108Z,81.78
2019-01-12T04:05:26.161Z,81.75
2019-01-12T04:07:55.512Z,81.85
2019-01-12T04:10:24.558Z,81.73
2019-01-12T04:12:53.625Z,81.87
2019-01-12T04:15:22.715Z,81.82
2019-01-12T04:17:51.763Z,81.83
2019-01-12T04:20:20.816Z,81.86
2019-01-12T04:22:49.886Z,81.85
2019-01-12T04:25:18.925Z,81.95
2019-01-12T04:27:47.973Z,82.03
2019-01-12T04:30:17.063Z,82.07
2019-01-12T04:32:46.107Z,82.06
2019-01-12T04:35:15.923Z,82.20
2019-01-12T04:37:44.990Z,82.22
2019-01-12T04:40:14.986Z,82.17
2019-01-12T04:42:44.013Z,82.14
2019-01-12T04:45:13.122Z,82.06
2019-01-12T04:47:42.186Z,82.06
2019-01-12T04:50:11.305Z,82.03
2019-01-12T04:52:40.326Z,82.03
2019-01-12T04:55:09.373Z,82.02
2019-01-12T04:57:38.416Z,82.09
2019-01-12T05:00:08.418Z,82.18
2019-01-12T05:02:37.472Z,82.12
2019-01-12T05:05:06.517Z,82.12
2019-01-12T05:07:35.595Z,82.16
2019-01-12T05:10:04.645Z,82.14
2019-01-12T05:12:33.687Z,82.20
2019-01-12T05:15:02.783Z,82.24
2019-01-12T05:17:31.834Z,82.22
2019-01-12T05:20:00.892Z,82.24
2019-01-12T05:22:29.962Z,82.18
2019-01-12T05:24:59.002Z,82.21
2019-01-12T05:27:28.044Z,82.13
2019-01-12T05:29:57.120Z,82.09
2019-01-12T05:32:26.157Z,82.10
2019-01-12T05:35:11.208Z,82.03
2019-01-12T05:37:41.137Z,82.02
2019-01-12T05:40:10.187Z,81.97
2019-01-12T05:42:39.265Z,81.90
2019-01-12T05:45:08.316Z,81.82
2019-01-12T05:47:37.356Z,81.76
2019-01-12T05:50:06.436Z,81.73
2019-01-12T05:52:35.498Z,81.68
2019-01-12T05:55:04.562Z,81.63
2019-01-12T05:57:33.673Z,81.63
2019-01-12T06:00:02.720Z,81.55
2019-01-12T06:02:31.760Z,81.57
2019-01-12T06:05:00.836Z,81.67
2019-01-12T06:07:29.894Z,81.65
2019-01-12T06:09:58.935Z,81.61
2019-01-12T06:12:28.051Z,81.63
2019-01-12T06:14:57.091Z,81.66
2019-01-12T06:17:26.132Z,81.63
2019-01-12T06:19:55.513Z,81.65
2019-01-12T06:22:24.571Z,81.65
2019-01-12T06:24:55.687Z,81.60
2019-01-12T06:27:24.706Z,81.60
2019-01-12T06:29:53.750Z,81.59
2019-01-12T06:32:22.800Z,81.57
2019-01-12T06:34:51.869Z,81.66
2019-01-12T06:37:20.910Z,81.67
2019-01-12T06:39:49.968Z,81.75
2019-01-12T06:42:19.167Z,81.74
2019-01-12T06:44:48.223Z,81.77
2019-01-12T06:47:17.267Z,81.76
2019-01-12T06:49:46.339Z,81.83
2019-01-12T06:52:15.393Z,81.88
2019-01-12T06:54:44.447Z,81.83
2019-01-12T06:57:13.527Z,81.97
2019-01-12T06:59:42.575Z,82.06
2019-01-12T07:02:11.630Z,82.03
2019-01-12T07:04:40.992Z,82.06
2019-01-12T07:07:10.050Z,82.05
2019-01-12T07:09:39.108Z,82.08
2019-01-12T07:12:08.338Z,82.12
2019-01-12T07:14:37.407Z,82.13
2019-01-12T07:17:06.449Z,82.17
2019-01-12T07:19:35.525Z,82.14
2019-01-12T07:22:04.576Z,82.14
2019-01-12T07:24:33.647Z,82.11
2019-01-12T07:27:02.800Z,82.08
2019-01-12T07:29:31.802Z,82.14
2019-01-12T07:32:00.852Z,82.14
2019-01-12T07:34:41.262Z,82.14
2019-01-12T07:37:10.308Z,82.22
2019-01-12T07:39:39.350Z,82.21
2019-01-12T07:42:08.445Z,82.29
2019-01-12T07:44:43.392Z,82.31
2019-01-12T07:47:12.478Z,82.26
2019-01-12T07:49:41.530Z,82.25
2019-01-12T07:52:10.596Z,82.25
2019-01-12T07:54:39.688Z,82.27
2019-01-12T07:57:08.745Z,82.35
2019-01-12T07:59:37.807Z,82.39
2019-01-12T08:02:06.909Z,82.35
2019-01-12T08:04:35.959Z,82.34
2019-01-12T08:07:05.019Z,82.30
2019-01-12T08:09:34.096Z,82.34
2019-01-12T08:12:03.152Z,82.29
2019-01-12T08:14:32.200Z,82.24
2019-01-12T08:17:01.289Z,82.19
2019-01-12T08:19:30.364Z,81.90
2019-01-12T08:21:59.431Z,81.87
2019-01-12T08:24:28.517Z,81.92
2019-01-12T08:26:57.583Z,81.77
2019-01-12T08:29:26.651Z,81.75
2019-01-12T08:31:55.732Z,81.52
2019-01-12T08:34:39.837Z,81.42
2019-01-12T08:37:08.922Z,81.40
2019-01-12T08:39:37.977Z,81.16
2019-01-12T08:42:07.043Z,81.30
2019-01-12T08:44:36.174Z,81.33
2019-01-12T08:47:05.234Z,81.20
2019-01-12T08:49:34.304Z,81.21
2019-01-12T08:52:03.466Z,81.00
2019-01-12T08:54:32.511Z,80.84
2019-01-12T08:57:01.578Z,80.67
2019-01-12T08:59:30.654Z,80.59
2019-01-12T09:01:59.715Z,80.30
2019-01-12T09:04:32.471Z,80.31
2019-01-12T09:07:01.529Z,80.39
2019-01-12T09:09:30.580Z,80.49
2019-01-12T09:11:59.674Z,80.18
2019-01-12T09:14:28.732Z,79.52
2019-01-12T09:16:57.794Z,79.50
2019-01-12T09:19:26.870Z,79.45
2019-01-12T09:21:55.917Z,79.15
2019-01-12T09:24:24.979Z,79.21
2019-01-12T09:26:54.070Z,79.17
2019-01-12T09:29:23.114Z,79.03
2019-01-12T09:31:52.172Z,78.67
2019-01-12T09:34:21.252Z,78.76
2019-01-12T09:36:50.320Z,78.78
2019-01-12T09:39:19.366Z,78.73
2019-01-12T09:41:48.450Z,78.81
2019-01-12T09:44:17.500Z,78.78
2019-01-12T09:46:46.555Z,78.88
2019-01-12T09:49:15.776Z,78.72
2019-01-12T09:51:44.834Z,78.89
2019-01-12T09:54:13.889Z,78.79
2019-01-12T09:56:43.010Z,78.80
2019-01-12T09:59:12.067Z,78.85
2019-01-12T10:01:41.110Z,78.77
2019-01-12T10:04:11.230Z,78.77
2019-01-12T10:06:40.282Z,78.73
2019-01-12T10:09:09.366Z,78.69
2019-01-12T10:11:38.493Z,78.66
2019-01-12T10:14:07.537Z,78.77
2019-01-12T10:16:36.590Z,78.54
2019-01-12T10:19:05.720Z,78.66
2019-01-12T10:21:34.778Z,78.75
2019-01-12T10:24:09.712Z,79.01
2019-01-12T10:26:38.772Z,79.25
2019-01-12T10:29:07.818Z,79.50
2019-01-12T10:31:36.941Z,79.75
2019-01-12T10:34:05.995Z,79.93
2019-01-12T10:36:35.053Z,80.14
2019-01-12T10:39:04.129Z,80.24
2019-01-12T10:41:33.192Z,80.22
2019-01-12T10:44:02.252Z,80.32
2019-01-12T10:46:31.324Z,80.37
2019-01-12T10:49:00.378Z,80.44
2019-01-12T10:51:29.433Z,80.45
2019-01-12T10:53:58.558Z,80.42
2019-01-12T10:56:27.994Z,80.41
2019-01-12T10:58:57.049Z,80.31
2019-01-12T11:01:26.135Z,80.32
2019-01-12T11:03:55.197Z,80.24
2019-01-12T11:06:24.266Z,80.15
2019-01-12T11:08:53.343Z,80.11
2019-01-12T11:11:22.389Z,79.94
2019-01-12T11:13:51.454Z,79.86
2019-01-12T11:16:20.545Z,79.63
2019-01-12T11:18:49.956Z,79.54
2019-01-12T11:21:19.011Z,79.52
2019-01-12T11:23:48.084Z,79.43
2019-01-12T11:26:17.136Z,79.24
2019-01-12T11:28:46.205Z,79.05
2019-01-12T11:31:19.744Z,79.04
2019-01-12T11:33:44.346Z,78.69
2019-01-12T11:36:13.400Z,78.70
2019-01-12T11:38:42.593Z,78.71
2019-01-12T11:41:11.643Z,78.56
2019-01-12T11:43:40.698Z,78.36
2019-01-12T11:46:09.793Z,78.17
2019-01-12T11:48:39.016Z,78.05
2019-01-12T11:51:08.041Z,78.07
2019-01-12T11:53:37.147Z,77.87
2019-01-12T11:56:06.203Z,77.87
2019-01-12T11:58:35.260Z,78.01
2019-01-12T12:01:04.354Z,78.15
2019-01-12T12:03:33.416Z,77.90
2019-01-12T12:06:02.471Z,77.95
2019-01-12T12:08:31.551Z,77.95
2019-01-12T12:11:00.605Z,77.88
2019-01-12T12:13:29.670Z,78.03
2019-01-12T12:15:58.767Z,78.04
2019-01-12T12:18:27.813Z,78.12
2019-01-12T12:20:56.876Z,78.30
2019-01-12T12:23:25.992Z,78.34
2019-01-12T12:25:55.055Z,78.51
2019-01-12T12:28:24.105Z,78.58
2019-01-12T12:30:53.189Z,78.83
2019-01-12T12:33:22.250Z,79.04
2019-01-12T12:35:51.302Z,79.01
2019-01-12T12:38:20.414Z,78.95
2019-01-12T12:40:49.474Z,79.02
2019-01-12T12:43:18.506Z,78.99
2019-01-12T12:45:47.629Z,79.21
2019-01-12T12:48:16.690Z,79.13
2019-01-12T12:50:45.752Z,79.28
2019-01-12T12:53:14.833Z,79.44
2019-01-12T12:55:43.904Z,79.49
2019-01-12T12:58:12.956Z,79.59
2019-01-12T13:00:42.054Z,79.34
2019-01-12T13:03:11.103Z,79.53
2019-01-12T13:05:40.153Z,79.31
2019-01-12T13:08:09.279Z,79.32
2019-01-12T13:10:38.337Z,79.30
2019-01-12T13:13:07.383Z,79.22
2019-01-12T13:15:36.465Z,79.14
2019-01-12T13:18:05.518Z,78.98
2019-01-12T13:20:34.577Z,79.16
2019-01-12T13:23:03.662Z,79.16
2019-01-12T13:25:32.715Z,79.07
2019-01-12T13:28:01.785Z,79.10
2019-01-12T13:30:30.902Z,79.24
2019-01-12T13:32:59.961Z,79.29
2019-01-12T13:35:29.012Z,79.41
2019-01-12T13:37:58.131Z,79.39
2019-01-12T13:40:27.185Z,79.52
2019-01-12T13:42:56.245Z,79.69
2019-01-12T13:45:26.297Z,79.70
2019-01-12T13:47:55.347Z,79.81
2019-01-12T13:50:24.405Z,79.83
2019-01-12T13:52:54.506Z,79.82
2019-01-12T13:55:23.562Z,79.84
2019-01-12T13:57:52.612Z,79.89
2019-01-12T14:00:25.135Z,79.85
2019-01-12T14:02:54.179Z,79.90
2019-01-12T14:05:23.228Z,79.80
2019-01-12T14:07:56.269Z,79.95
2019-01-12T14:10:21.384Z,79.95
2019-01-12T14:12:50.433Z,80.01
2019-01-12T14:15:19.548Z,80.01
2019-01-12T14:17:48.607Z,79.92
2019-01-12T14:20:24.423Z,79.90
2019-01-12T14:22:53.488Z,79.82
2019-01-12T14:25:22.538Z,79.97
2019-01-12T14:27:54.854Z,80.01
2019-01-12T14:30:20.686Z,80.01
2019-01-12T14:32:49.747Z,79.92
2019-01-12T14:35:18.839Z,80.14
2019-01-12T14:37:47.893Z,80.24
2019-01-12T14:40:16.958Z,80.17
2019-01-12T14:42:46.053Z,80.18
2019-01-12T14:45:15.119Z,80.32
2019-01-12T14:47:44.217Z,80.31
2019-01-12T14:50:13.306Z,80.35
2019-01-12T14:52:42.361Z,80.46
2019-01-12T14:55:11.416Z,80.51
2019-01-12T14:57:40.510Z,80.49
2019-01-12T15:00:11.486Z,80.50
2019-01-12T15:02:40.598Z,80.56
2019-01-12T15:05:09.692Z,80.59
2019-01-12T15:07:38.762Z,80.67
2019-01-12T15:10:07.814Z,80.75
2019-01-12T15:12:36.900Z,80.75
2019-01-12T15:15:05.961Z,80.78
2019-01-12T15:17:35.009Z,80.81
2019-01-12T15:20:04.141Z,80.83
2019-01-12T15:22:33.193Z,80.89
2019-01-12T15:25:02.253Z,80.96
2019-01-12T15:27:31.331Z,81.02
2019-01-12T15:30:00.387Z,81.04
2019-01-12T15:32:29.441Z,81.08
2019-01-12T15:34:58.539Z,81.13
2019-01-12T15:37:27.602Z,81.17
2019-01-12T15:39:56.656Z,81.31
2019-01-12T15:42:25.799Z,81.33
2019-01-12T15:44:54.864Z,81.34
2019-01-12T15:47:23.914Z,81.33
2019-01-12T15:49:53.015Z,81.32
2019-01-12T15:52:22.350Z,81.38
2019-01-12T15:54:51.383Z,81.40
2019-01-12T15:57:20.831Z,81.42
2019-01-12T15:59:49.763Z,81.43
2019-01-12T16:02:18.832Z,81.49
2019-01-12T16:04:58.264Z,81.50
2019-01-12T16:07:27.377Z,81.52
2019-01-12T16:09:56.455Z,81.52
2019-01-12T16:12:25.537Z,81.57
2019-01-12T16:14:54.783Z,81.62
2019-01-12T16:17:23.834Z,81.69
2019-01-12T16:19:52.941Z,81.73
2019-01-12T16:22:21.987Z,81.79
2019-01-12T16:25:15.518Z,81.80
2019-01-12T16:27:44.572Z,81.83
2019-01-12T16:30:13.659Z,81.82
2019-01-12T16:32:42.741Z,81.87
2019-01-12T16:35:13.831Z,81.86
2019-01-12T16:37:42.931Z,81.87
2019-01-12T16:40:13.912Z,81.89
2019-01-12T16:42:42.964Z,81.93
2019-01-12T16:45:12.068Z,81.96
2019-01-12T16:47:41.124Z,81.94
2019-01-12T16:50:10.171Z,81.94
2019-01-12T16:52:39.253Z,81.93
2019-01-12T16:55:08.314Z,81.92
2019-01-12T16:57:37.376Z,81.89
2019-01-12T17:00:06.475Z,81.85
2019-01-12T17:02:35.543Z,81.83
2019-01-12T17:05:19.888Z,81.78
2019-01-12T17:07:49.015Z,81.81
2019-01-12T17:10:18.874Z,81.81
2019-01-12T17:12:47.959Z,81.86
2019-01-12T17:15:17.937Z,81.86
2019-01-12T17:17:46.997Z,81.85
2019-01-12T17:20:16.119Z,81.87
2019-01-12T17:22:45.262Z,81.89
2019-01-12T17:25:14.321Z,81.92
2019-01-12T17:27:43.410Z,81.96
2019-01-12T17:30:12.465Z,81.96
2019-01-12T17:32:41.516Z,81.99
2019-01-12T17:35:10.594Z,82.01
2019-01-12T17:37:39.649Z,82.01
2019-01-12T17:40:08.702Z,81.98
2019-01-12T17:42:37.800Z,82.02
2019-01-12T17:45:07.806Z,82.06
2019-01-12T17:47:37.162Z,82.08
2019-01-12T17:50:05.932Z,82.08
2019-01-12T17:52:34.997Z,82.07
2019-01-12T17:55:04.072Z,82.07
2019-01-12T17:57:33.141Z,82.11
2019-01-12T18:00:02.187Z,82.11
2019-01-12T18:02:31.249Z,82.28
2019-01-12T18:05:00.358Z,82.24
2019-01-12T18:07:29.441Z,82.21
2019-01-12T18:09:58.496Z,82.23
2019-01-12T18:12:27.810Z,82.20
2019-01-12T18:14:56.855Z,82.18
2019-01-12T18:17:25.910Z,82.19
2019-01-12T18:19:54.988Z,82.23
2019-01-12T18:22:24.050Z,82.25
2019-01-12T18:24:53.112Z,82.23
2019-01-12T18:27:22.229Z,82.31
2019-01-12T18:29:51.275Z,82.30
2019-01-12T18:32:20.327Z,82.31
2019-01-12T18:34:49.843Z,82.33
2019-01-12T18:37:19.671Z,82.30
2019-01-12T18:39:48.739Z,82.29
2019-01-12T18:42:17.827Z,82.28
2019-01-12T18:44:46.895Z,82.27
2019-01-12T18:47:15.957Z,82.24
2019-01-12T18:49:45.054Z,82.25
2019-01-12T18:52:14.107Z,82.24
2019-01-12T18:54:50.949Z,82.27
2019-01-12T18:57:19.994Z,82.26
2019-01-12T18:59:49.049Z,82.26
2019-01-12T19:02:18.152Z,82.29
2019-01-12T19:04:47.200Z,82.29
2019-01-12T19:07:16.266Z,82.31
2019-01-12T19:09:45.380Z,82.33
2019-01-12T19:12:14.428Z,82.43
2019-01-12T19:14:43.482Z,82.40
2019-01-12T19:17:12.562Z,82.38
2019-01-12T19:19:41.608Z,82.39
2019-01-12T19:22:10.657Z,82.58
2019-01-12T19:24:39.739Z,82.61
2019-01-12T19:27:08.779Z,82.55
2019-01-12T19:29:37.839Z,82.54
2019-01-12T19:32:06.958Z,82.59
2019-01-12T19:34:36.007Z,82.52
2019-01-12T19:37:05.054Z,82.62
2019-01-12T19:39:34.139Z,82.67
2019-01-12T19:42:03.182Z,82.71
2019-01-12T19:44:32.233Z,82.80
2019-01-12T19:47:01.312Z,82.84
2019-01-12T19:49:30.356Z,82.93
2019-01-12T19:51:59.399Z,82.89
2019-01-12T19:54:28.651Z,82.94
2019-01-12T19:56:57.689Z,82.95
2019-01-12T19:59:26.733Z,82.83
2019-01-12T20:01:55.796Z,82.93
2019-01-12T20:04:41.878Z,83.00
2019-01-12T20:07:10.939Z,82.95
2019-01-12T20:09:39.970Z,82.91
2019-01-12T20:12:09.022Z,82.93
2019-01-12T20:14:38.123Z,82.89
2019-01-12T20:17:07.163Z,82.88
2019-01-12T20:19:36.204Z,82.85
2019-01-12T20:22:05.348Z,82.84
2019-01-12T20:24:42.628Z,82.82
2019-01-12T20:27:11.711Z,82.86
2019-01-12T20:29:40.748Z,82.87
2019-01-12T20:32:10.638Z,82.89
2019-01-12T20:34:39.726Z,82.97
2019-01-12T20:37:12.699Z,82.98
2019-01-12T20:39:42.580Z,83.01
2019-01-12T20:42:15.138Z,82.97
2019-01-12T20:44:47.987Z,82.97
2019-01-12T20:47:18.873Z,82.95
2019-01-12T20:49:47.919Z,82.94
2019-01-12T20:52:17.960Z,82.92
2019-01-12T20:54:52.874Z,82.90
2019-01-12T20:57:38.180Z,82.88
2019-01-12T21:00:12.117Z,82.85
2019-01-12T21:02:43.702Z,82.77
2019-01-12T21:05:26.654Z,82.72
2019-01-12T21:07:55.774Z,82.68
2019-01-12T21:10:30.577Z,82.66
2019-01-12T21:13:09.174Z,82.68
2019-01-12T21:15:38.226Z,82.71
2019-01-12T21:18:07.272Z,82.74
2019-01-12T21:20:36.425Z,82.73
2019-01-12T21:23:05.486Z,82.73
2019-01-12T21:25:36.606Z,82.72
2019-01-12T21:28:05.656Z,82.75
2019-01-12T21:30:34.708Z,82.77
2019-01-12T21:33:03.788Z,82.75
2019-01-12T21:35:32.832Z,82.77
2019-01-12T21:38:01.875Z,82.79
2019-01-12T21:40:30.949Z,82.78
2019-01-12T21:42:59.995Z,82.77
2019-01-12T21:45:30.092Z,82.83
2019-01-12T21:47:59.161Z,82.81
2019-01-12T21:50:28.211Z,82.83
2019-01-12T21:52:57.255Z,82.81
2019-01-12T21:55:26.331Z,82.84
2019-01-12T21:57:55.383Z,82.79
2019-01-12T22:00:24.417Z,82.90
2019-01-12T22:02:53.490Z,82.86
2019-01-12T22:05:34.770Z,82.79
2019-01-12T22:08:03.969Z,82.76
2019-01-12T22:10:33.031Z,82.77
2019-01-12T22:13:02.080Z,82.83
2019-01-12T22:15:31.141Z,82.84
2019-01-12T22:18:00.182Z,82.86
2019-01-12T22:20:29.221Z,82.95
2019-01-12T22:22:58.294Z,82.96
2019-01-12T22:25:28.352Z,82.93
2019-01-12T22:27:57.408Z,82.87
2019-01-12T22:30:26.594Z,82.88
2019-01-12T22:32:55.653Z,82.93
2019-01-12T22:35:24.695Z,82.89
2019-01-12T22:37:53.779Z,82.91
2019-01-12T22:40:22.833Z,82.88
2019-01-12T22:42:51.908Z,82.92
2019-01-12T22:45:20.971Z,82.91
2019-01-12T22:47:50.016Z,82.93
2019-01-12T22:50:20.971Z,82.92
2019-01-12T22:52:50.055Z,82.95
2019-01-12T22:55:19.090Z,82.96
2019-01-12T22:57:48.136Z,83.05
2019-01-12T23:00:23.968Z,83.02
2019-01-12T23:02:53.023Z,82.98
2019-01-12T23:05:22.117Z,83.04
2019-01-12T23:07:51.293Z,83.06
2019-01-12T23:10:20.344Z,83.10
2019-01-12T23:12:49.360Z,83.05
2019-01-12T23:15:18.452Z,83.07
2019-01-12T23:17:47.500Z,83.04
2019-01-12T23:20:16.571Z,83.03
2019-01-12T23:22:45.664Z,82.99
2019-01-12T23:25:14.681Z,83.00
2019-01-12T23:27:43.728Z,82.97
2019-01-12T23:30:13.755Z,82.97
2019-01-12T23:32:42.799Z,82.96
2019-01-12T23:35:11.844Z,82.96
2019-01-12T23:37:40.985Z,82.93
2019-01-12T23:40:10.825Z,82.92
2019-01-12T23:42:39.855Z,82.95
2019-01-12T23:45:09.725Z,82.96
2019-01-12T23:47:38.751Z,82.97
2019-01-12T23:50:07.778Z,83.06
2019-01-12T23:52:36.851Z,83.11
2019-01-12T23:55:05.882Z,83.16
2019-01-12T23:57:34.919Z,83.15
